Data for 08/21/2017

Time Sea-Level Adjusted Pressure Absolute Pressure Temperature Relative Humidity Dew Point   
(mb) (inHg) (mb) (inHg) (C) (F) (%) (C) (F)
00:05 1022 30.18 851 25.13 14.9 58.7 33 -1 30.2
00:10 1022 30.18 851 25.13 14.9 58.8 33 -1.3 29.6
00:15 1022 30.18 851 25.13 14.9 58.8 33 -1.1 30
00:20 1022 30.18 851 25.13 14.6 58.2 34 -0.8 30.5
00:25 1022 30.18 851 25.13 14.2 57.6 35 -1 30.1
00:30 1022 30.18 851 25.13 14.2 57.5 34 -1.4 29.5
00:35 1022 30.18 852 25.16 14.2 57.5 35 -1 30.2
00:40 1022 30.18 852 25.16 13.9 57 34 -1.6 29.1
00:45 1022 30.18 852 25.16 14.1 57.3 34 -1.5 29.2
00:50 1022 30.18 852 25.16 13.8 56.8 35 -1.3 29.7
00:55 1022 30.18 852 25.16 13.5 56.3 36 -1.4 29.5
01:00 1022 30.18 852 25.16 13.4 56.2 35 -1.8 28.8
01:05 1022 30.18 852 25.16 13.5 56.3 33 -2.3 27.8
01:10 1022 30.18 852 25.16 13.6 56.5 34 -1.8 28.8
01:15 1022 30.18 852 25.16 13.7 56.7 34 -1.9 28.6
01:20 1022 30.18 852 25.16 13.7 56.6 33 -2.3 27.9
01:25 1022 30.18 852 25.16 13.7 56.7 33 -2.1 28.2
01:30 1022 30.18 852 25.16 13.8 56.9 34 -1.8 28.8
01:35 1022 30.18 852 25.16 13.7 56.7 33 -2.2 28
01:40 1022 30.18 852 25.16 13.5 56.2 34 -2.2 28.1
01:45 1023 30.21 852 25.16 13.4 56.2 34 -1.9 28.6
01:50 1023 30.21 852 25.16 13.1 55.6 35 -1.8 28.8
01:55 1023 30.21 852 25.16 12.9 55.2 35 -2.2 28.1
02:00 1023 30.21 852 25.16 12.8 55 36 -1.8 28.8
02:05 1023 30.21 852 25.16 12.7 54.8 35 -2.4 27.6
02:10 1023 30.21 852 25.16 13 55.3 33 -2.9 26.8
02:15 1023 30.21 852 25.16 13.3 55.9 33 -2.6 27.4
02:20 1023 30.21 852 25.16 13.3 55.9 33 -2.6 27.3
02:25 1023 30.21 852 25.16 13.3 55.9 33 -2.6 27.2
02:30 1023 30.21 852 25.16 13.2 55.8 34 -2.3 27.9
02:35 1023 30.21 852 25.16 13 55.4 33 -2.7 27.2
02:40 1023 30.21 852 25.16 13 55.5 34 -2.3 27.9
02:45 1023 30.21 852 25.16 12.8 55 35 -2.2 28.1
02:50 1023 30.21 852 25.16 12.6 54.8 36 -2 28.4
02:55 1023 30.21 852 25.16 12.5 54.5 36 -2 28.4
03:00 1023 30.21 852 25.16 12.3 54.1 38 -1.7 29
03:05 1023 30.21 852 25.16 11.9 53.5 38 -1.8 28.7
03:10 1023 30.21 852 25.16 11.7 53.1 39 -1.7 28.9
03:15 1023 30.21 852 25.16 11.6 52.9 38 -2.2 28.1
03:20 1023 30.21 852 25.16 11.6 52.9 39 -2 28.4
03:25 1023 30.21 852 25.16 11.6 52.9 38 -2.1 28.2
03:30 1023 30.21 852 25.16 11.9 53.4 36 -2.6 27.3
03:35 1023 30.21 852 25.16 12.3 54.1 36 -2.5 27.5
03:40 1023 30.21 852 25.16 12.6 54.7 35 -2.5 27.5
03:45 1023 30.21 852 25.16 12.5 54.4 37 -1.8 28.7
03:50 1023 30.21 852 25.16 12.1 53.9 38 -1.7 29
03:55 1023 30.21 852 25.16 12 53.5 37 -2.2 28
04:00 1023 30.21 852 25.16 12.1 53.8 38 -1.8 28.7
04:05 1023 30.21 852 25.16 12.1 53.7 37 -2.1 28.1
04:10 1023 30.21 852 25.16 12.1 53.7 39 -1.4 29.4
04:15 1023 30.21 852 25.16 11.9 53.5 39 -1.4 29.5
04:20 1023 30.21 852 25.16 11.9 53.4 39 -1.5 29.3
04:25 1023 30.21 852 25.16 11.9 53.4 41 -0.8 30.5
04:30 1023 30.21 852 25.16 11.8 53.2 38 -1.9 28.6
04:35 1023 30.21 852 25.16 11.9 53.5 40 -1.2 29.8
04:40 1023 30.21 852 25.16 11.7 53 42 -0.8 30.6
04:45 1023 30.21 852 25.16 11.4 52.5 41 -1.2 29.8
04:50 1023 30.21 852 25.16 11.6 52.8 38 -2.1 28.2
04:55 1023 30.21 852 25.16 11.9 53.5 37 -2.3 27.9
05:00 1023 30.21 852 25.16 12 53.6 37 -2.2 28
05:05 1023 30.21 853 25.19 12.1 53.7 37 -2.1 28.2
05:10 1023 30.21 853 25.19 12.1 53.8 37 -2 28.4
05:15 1023 30.21 853 25.19 12.2 54 36 -2.4 27.7
05:20 1023 30.21 853 25.19 12.2 53.9 38 -1.7 28.9
05:25 1024 30.24 853 25.19 11.9 53.5 40 -1.1 30.1
05:30 1024 30.24 853 25.19 11.4 52.5 40 -1.7 28.9
05:35 1024 30.24 853 25.19 11.4 52.4 41 -1.5 29.3
05:40 1024 30.24 853 25.19 11.2 52.2 43 -0.7 30.7
05:45 1024 30.24 853 25.19 11 51.8 42 -1.5 29.3
05:50 1024 30.24 853 25.19 11.2 52.2 40 -1.9 28.6
05:55 1024 30.24 853 25.19 11.4 52.5 39 -2 28.4
06:00 1024 30.24 853 25.19 11.5 52.7 39 -1.8 28.8
06:05 1024 30.24 853 25.19 11.5 52.6 39 -1.8 28.7
06:10 1024 30.24 853 25.19 11.5 52.6 40 -1.6 29.1
06:15 1024 30.24 853 25.19 11.4 52.5 41 -1.5 29.4
06:20 1024 30.24 853 25.19 11.5 52.7 39 -1.9 28.6
06:25 1024 30.24 853 25.19 11.8 53.3 37 -2.2 28
06:30 1024 30.24 853 25.19 12.1 53.7 38 -1.7 29
06:35 1024 30.24 853 25.19 11.9 53.3 43 -0.2 31.7
06:40 1024 30.24 853 25.19 11.5 52.7 46 0.3 32.6
06:45 1024 30.24 853 25.19 11.2 52.1 46 0.1 32.2
06:50 1024 30.24 853 25.19 11.1 51.9 46 0 32.1
06:55 1024 30.24 853 25.19 11.1 52.1 44 -0.6 30.9
07:00 1024 30.24 853 25.19 11.7 53 42 -0.6 30.9
07:05 1024 30.24 853 25.19 12.1 53.9 41 -0.7 30.7
07:10 1024 30.24 853 25.19 12.5 54.4 40 -0.8 30.6
07:15 1024 30.24 853 25.19 12.9 55.3 37 -1.4 29.4
07:20 1024 30.24 853 25.19 13.3 55.9 39 -0.3 31.4
07:25 1024 30.24 854 25.22 13.4 56.1 38 -0.7 30.7
07:30 1024 30.24 854 25.22 13.4 56.1 41 0.5 32.8
07:35 1024 30.24 854 25.22 13.7 56.6 35 -1.5 29.2
07:40 1025 30.27 854 25.22 14.2 57.5 37 -0.2 31.7
07:45 1025 30.27 854 25.22 14.8 58.6 35 -0.6 31
07:50 1025 30.27 854 25.22 15.4 59.7 34 -0.3 31.5
07:55 1025 30.27 854 25.22 15.2 59.3 34 -0.4 31.3
08:00 1025 30.27 854 25.22 15.5 59.9 34 -0.4 31.3
08:05 1025 30.27 854 25.22 16.3 61.3 32 -0.4 31.2
08:10 1025 30.27 854 25.22 16.4 61.5 32 -0.4 31.2
08:15 1025 30.27 854 25.22 16.6 61.9 31 -0.3 31.4
08:20 1025 30.27 854 25.22 16.9 62.3 32 -0 32
08:25 1025 30.27 854 25.22 17.3 63.2 34 1.6 34.8
08:30 1025 30.27 854 25.22 17.8 64 32 0.9 33.6
08:35 1025 30.27 854 25.22 18 64.3 33 1.7 35.1
08:40 1025 30.27 854 25.22 17.9 64.3 27 -1.3 29.6
08:45 1025 30.27 854 25.22 18.1 64.7 26 -1.4 29.6
08:50 1024 30.24 854 25.22 18.8 65.8 26 -1.2 29.8
08:55 1024 30.24 854 25.22 19.3 66.8 26 -0.4 31.2
09:00 1024 30.24 854 25.22 19.6 67.2 25 -0.6 31
09:05 1025 30.27 854 25.22 19.6 67.2 26 -0.3 31.5
09:10 1025 30.27 854 25.22 20 67.9 25 -0.7 30.7
09:15 1025 30.27 854 25.22 19.9 67.8 25 -0.4 31.2
09:20 1025 30.27 854 25.22 20.1 68.1 25 -0.4 31.3
09:25 1024 30.24 854 25.22 20.5 68.9 25 0 32
09:30 1024 30.24 854 25.22 20.8 69.5 24 -0.1 31.7
09:35 1024 30.24 854 25.22 21.1 69.9 24 -0 32
09:40 1024 30.24 854 25.22 21.4 70.5 24 -0 31.9
09:45 1024 30.24 854 25.22 21.3 70.4 24 0.1 32.1
09:50 1024 30.24 854 25.22 21 69.8 25 0.6 33.1
09:55 1024 30.24 854 25.22 21.2 70.1 26 0.9 33.5
10:00 1024 30.24 854 25.22 20.9 69.6 25 0.2 32.4
10:05 1025 30.27 854 25.22 20.6 69.1 26 0.4 32.7
10:10 1025 30.27 854 25.22 20.1 68.1 27 0.8 33.4
10:15 1025 30.27 854 25.22 19.8 67.7 27 0.6 33
10:20 1025 30.27 854 25.22 19.6 67.3 29 1.3 34.3
10:25 1025 30.27 854 25.22 19 66.2 30 1.3 34.3
10:30 1025 30.27 854 25.22 18.8 65.9 30 1.2 34.2
10:35 1025 30.27 854 25.22 18.6 65.5 31 1.1 34
10:40 1025 30.27 854 25.22 18.1 64.6 31 0.8 33.4
10:45 1025 30.27 854 25.22 17.8 64.1 32 1.2 34.1
10:50 1025 30.27 854 25.22 17.7 63.9 32 1 33.7
10:55 1025 30.27 854 25.22 17.7 63.8 32 0.7 33.3
11:00 1025 30.27 854 25.22 17.8 64 29 -0.2 31.6
11:05 1025 30.27 854 25.22 18.1 64.6 28 -0.6 30.9
11:10 1025 30.27 854 25.22 18.4 65.2 26 -1.1 30
11:15 1025 30.27 854 25.22 18.8 65.8 26 -0.7 30.7
11:20 1025 30.27 854 25.22 19 66.3 26 -1 30.3
11:25 1025 30.27 854 25.22 19.2 66.5 26 -0.5 31.1
11:30 1025 30.27 854 25.22 19.6 67.2 26 -0.4 31.2
11:35 1025 30.27 854 25.22 20 68 25 -0.5 31.1
11:40 1025 30.27 854 25.22 20.5 68.9 24 -0.6 30.9
11:45 1025 30.27 854 25.22 20.2 68.3 26 0.2 32.3
11:50 1025 30.27 854 25.22 20.5 68.8 24 -0.5 31.1
11:55 1025 30.27 854 25.22 20.9 69.6 24 -0.4 31.3
12:00 1025 30.27 854 25.22 21 69.8 23 -0.6 30.9
12:05 1025 30.27 854 25.22 21.1 70 24 -0.1 31.8
12:10 1025 30.27 854 25.22 21.7 71.1 21 -1.3 29.7
12:15 1025 30.27 854 25.22 22.6 72.7 20 -1 30.2
12:20 1025 30.27 854 25.22 23 73.4 20 -1.2 29.9
12:25 1025 30.27 854 25.22 23 73.5 19 -1.4 29.5
12:30 1025 30.27 854 25.22 23.7 74.6 17 -2.3 27.8
12:35 1025 30.27 854 25.22 23.5 74.3 18 -2.2 28
12:40 1025 30.27 854 25.22 23.4 74.1 18 -1.9 28.6
12:45 1025 30.27 854 25.22 23.3 73.9 19 -1.3 29.7
12:50 1025 30.27 854 25.22 23.4 74 19 -1.6 29.1
12:55 1025 30.27 854 25.22 23.8 74.8 18 -1.9 28.6
13:00 1024 30.24 854 25.22 23.9 75.1 17 -2 28.4
13:05 1024 30.24 854 25.22 24.3 75.8 19 -0.6 30.8
13:10 1024 30.24 854 25.22 24.6 76.2 18 -1.1 30.1
13:15 1024 30.24 854 25.22 24.7 76.4 19 -0.5 31.2
13:20 1024 30.24 854 25.22 24.7 76.4 19 -0.5 31.1
13:25 1024 30.24 854 25.22 24.7 76.4 17 -1.5 29.3
13:30 1024 30.24 853 25.19 24.6 76.2 19 -0.5 31.1
13:35 1024 30.24 853 25.19 24.3 75.8 18 -1.2 29.9
13:40 1024 30.24 853 25.19 24.7 76.4 18 -1.1 30.1
13:45 1024 30.24 853 25.19 24.3 75.7 19 -0.4 31.3
13:50 1024 30.24 853 25.19 24 75.1 18 -1.9 28.7
13:55 1024 30.24 853 25.19 23.8 74.8 18 -1.5 29.2
14:00 1024 30.24 853 25.19 24.7 76.4 17 -1.9 28.6
14:05 1024 30.24 853 25.19 24.2 75.5 18 -1.8 28.8
14:10 1024 30.24 853 25.19 24.7 76.5 16 -2.8 27
14:15 1024 30.24 853 25.19 25.2 77.4 17 -1.2 29.8
14:20 1024 30.24 853 25.19 25.5 77.9 17 -0.8 30.5
14:25 1024 30.24 853 25.19 25.3 77.5 19 -0 31.9
14:30 1024 30.24 853 25.19 25 77 17 -1.7 28.9
14:35 1024 30.24 853 25.19 25.3 77.6 17 -1.1 30
14:40 1024 30.24 853 25.19 25.3 77.5 16 -2.4 27.7
14:45 1024 30.24 853 25.19 24.7 76.4 16 -2.2 28
14:50 1024 30.24 853 25.19 23.6 74.5 17 -2.6 27.4
14:55 1024 30.24 853 25.19 23.9 75 15 -3.7 25.3
15:00 1024 30.24 853 25.19 23.9 75 15 -4.2 24.5
15:05 1024 30.24 853 25.19 24.4 75.8 16 -3.1 26.4
15:10 1024 30.24 853 25.19 24.8 76.6 13 -5.5 22.1
15:15 1024 30.24 853 25.19 24.2 75.6 14 -4.4 24.1
15:20 1024 30.24 853 25.19 24.2 75.6 14 -4.8 23.3
15:25 1024 30.24 853 25.19 25 76.9 15 -2.9 26.7
15:30 1024 30.24 853 25.19 25.6 78.1 15 -3 26.5
15:35 1024 30.24 853 25.19 25.9 78.7 14 -3 26.6
15:40 1024 30.24 853 25.19 25.8 78.4 14 -3 26.6
15:45 1024 30.24 853 25.19 25.6 78.1 16 -1.5 29.3
15:50 1024 30.24 853 25.19 25.5 78 16 -2.1 28.3
15:55 1024 30.24 853 25.19 26 78.7 15 -2 28.3
16:00 1024 30.24 853 25.19 26.2 79.2 15 -2.1 28.1
16:05 1024 30.24 853 25.19 25.9 78.7 16 -1.9 28.7
16:10 1024 30.24 853 25.19 25.8 78.4 15 -2.4 27.7
16:15 1024 30.24 853 25.19 25.5 77.8 17 -1.5 29.3
16:20 1024 30.24 853 25.19 25.2 77.3 17 -1.4 29.6
16:25 1024 30.24 853 25.19 25.2 77.3 18 -0.7 30.8
16:30 1024 30.24 853 25.19 24.7 76.4 17 -1.5 29.3
16:35 1024 30.24 853 25.19 25 77.1 15 -3 26.6
16:40 1024 30.24 853 25.19 24.8 76.7 15 -3 26.7
16:45 1024 30.24 853 25.19 25 77 17 -1.9 28.7
16:50 1024 30.24 853 25.19 24.2 75.5 17 -1.9 28.6
16:55 1023 30.21 853 25.19 24.1 75.4 17 -2.6 27.3
17:00 1024 30.24 853 25.19 24.6 76.3 15 -3.3 26.1
17:05 1023 30.21 853 25.19 24.9 76.8 15 -3.6 25.6
17:10 1023 30.21 853 25.19 25 76.9 15 -3 26.5
17:15 1023 30.21 853 25.19 25.2 77.3 15 -2.9 26.8
17:20 1023 30.21 853 25.19 25.1 77.1 15 -3.5 25.7
17:25 1023 30.21 853 25.19 25.2 77.4 15 -3.2 26.3
17:30 1023 30.21 853 25.19 25.3 77.5 16 -2.4 27.6
17:35 1023 30.21 853 25.19 25.3 77.6 15 -3 26.6
17:40 1023 30.21 853 25.19 25.1 77.3 15 -2.9 26.8
17:45 1023 30.21 852 25.16 24.6 76.3 16 -2.7 27.2
17:50 1023 30.21 852 25.16 24.2 75.6 17 -1.8 28.7
17:55 1023 30.21 852 25.16 24.1 75.3 18 -1.8 28.8
18:00 1023 30.21 852 25.16 24.1 75.3 17 -2.6 27.2
18:05 1023 30.21 852 25.16 24 75.1 17 -2.5 27.5
18:10 1023 30.21 852 25.16 23.7 74.6 17 -2.4 27.6
18:15 1023 30.21 852 25.16 23.4 74.2 16 -3.2 26.2
18:20 1023 30.21 852 25.16 23.4 74.1 17 -2.7 27.1
18:25 1023 30.21 852 25.16 23.4 74.2 17 -2.7 27.2
18:30 1023 30.21 852 25.16 23.3 74 17 -2.6 27.4
18:35 1023 30.21 852 25.16 23.4 74 18 -2.2 28
18:40 1023 30.21 852 25.16 23.3 74 19 -1.4 29.6
18:45 1023 30.21 852 25.16 23 73.4 20 -0.9 30.4
18:50 1023 30.21 852 25.16 22.8 73 20 -1.4 29.5
18:55 1023 30.21 852 25.16 22.6 72.7 19 -1.7 28.9
19:00 1023 30.21 853 25.19 22.5 72.4 21 -1 30.3
19:05 1023 30.21 853 25.19 22.2 71.9 25 1.4 34.6
19:10 1023 30.21 853 25.19 21.8 71.2 29 2.9 37.3
19:15 1023 30.21 853 25.19 21 69.8 31 3.4 38.1
19:20 1023 30.21 853 25.19 20.2 68.4 31 2.6 36.7
19:25 1023 30.21 853 25.19 19.5 67.1 31 2.1 35.7
19:30 1023 30.21 853 25.19 19.1 66.4 32 2.1 35.8
19:35 1023 30.21 853 25.19 18.8 65.9 32 1.8 35.2
19:40 1023 30.21 853 25.19 18.6 65.5 31 1.4 34.5
19:45 1024 30.24 853 25.19 18.5 65.3 32 1.4 34.6
19:50 1024 30.24 853 25.19 18.2 64.7 34 2.1 35.8
19:55 1024 30.24 853 25.19 17.4 63.4 38 3 37.5
20:00 1024 30.24 853 25.19 16.9 62.5 39 3 37.4
20:05 1024 30.24 853 25.19 16.8 62.3 36 1.9 35.5
20:10 1024 30.24 853 25.19 17.5 63.4 29 -0.7 30.8
20:15 1024 30.24 853 25.19 18 64.4 34 1.8 35.3
20:20 1024 30.24 853 25.19 17.1 62.7 33 0.6 33.2
20:25 1024 30.24 853 25.19 17.4 63.3 30 -0.2 31.6
20:30 1024 30.24 853 25.19 17.5 63.5 30 -0.3 31.5
20:35 1024 30.24 853 25.19 17.4 63.3 30 -0.1 31.8
20:40 1024 30.24 853 25.19 17 62.7 32 0.3 32.5
20:45 1024 30.24 853 25.19 16.5 61.6 33 0.2 32.3
20:50 1024 30.24 853 25.19 16.1 60.9 33 -0.3 31.5
20:55 1024 30.24 853 25.19 16 60.8 33 -0.3 31.4
21:00 1024 30.24 853 25.19 16 60.9 32 -0.5 31.2
21:05 1024 30.24 853 25.19 16 60.8 32 -0.6 30.9
21:10 1024 30.24 853 25.19 16.1 61 31 -0.8 30.5
21:15 1024 30.24 853 25.19 16.3 61.3 31 -0.7 30.8
21:20 1024 30.24 853 25.19 16.2 61.2 31 -0.8 30.6
21:25 1024 30.24 853 25.19 16.3 61.3 30 -1.2 29.8
21:30 1024 30.24 853 25.19 16.7 62.1 29 -1.2 29.8
21:35 1024 30.24 853 25.19 16.7 62 30 -0.9 30.4
21:40 1024 30.24 853 25.19 16.2 61.2 31 -0.8 30.5
21:45 1024 30.24 853 25.19 15.9 60.7 31 -1.2 29.9
21:50 1024 30.24 853 25.19 15.9 60.5 31 -1.3 29.6
21:55 1024 30.24 853 25.19 15.9 60.7 31 -0.9 30.4
22:00 1024 30.24 853 25.19 15.4 59.8 32 -0.9 30.4
22:05 1024 30.24 853 25.19 15.3 59.5 32 -1.2 29.8
22:10 1024 30.24 853 25.19 15.4 59.6 32 -1.2 29.9
22:15 1024 30.24 853 25.19 15.3 59.5 32 -1.1 30
22:20 1024 30.24 853 25.19 15.4 59.7 31 -1.6 29.2
22:25 1024 30.24 853 25.19 15.6 60 33 -0.7 30.7
22:30 1024 30.24 853 25.19 15 58.9 34 -0.5 31.1
22:35 1024 30.24 853 25.19 14.5 58 34 -1.2 29.8
22:40 1024 30.24 853 25.19 14.7 58.5 34 -0.8 30.5
22:45 1024 30.24 853 25.19 14.5 58.2 35 -0.6 31
22:50 1024 30.24 853 25.19 14.3 57.7 36 -0.7 30.8
22:55 1024 30.24 853 25.19 14.1 57.4 36 -0.7 30.8
23:00 1024 30.24 853 25.19 14.2 57.5 36 -0.8 30.6
23:05 1024 30.24 853 25.19 14.2 57.5 36 -0.6 30.8
23:10 1024 30.24 853 25.19 14.7 58.5 33 -1.2 29.8
23:15 1024 30.24 853 25.19 15.2 59.3 35 -0.3 31.5
23:20 1024 30.24 853 25.19 14.7 58.4 34 -1 30.2
23:25 1024 30.24 853 25.19 15.5 60 31 -1.5 29.3
23:30 1024 30.24 853 25.19 16.4 61.4 30 -1.3 29.7
23:35 1024 30.24 853 25.19 16.5 61.8 30 -1.1 30
23:40 1024 30.24 853 25.19 16.3 61.4 32 -0.2 31.7
23:45 1024 30.24 853 25.19 15.8 60.5 32 -0.6 31
23:50 1024 30.24 853 25.19 15.4 59.6 33 -0.9 30.3
23:55 1024 30.24 853 25.19 15.6 60.1 31 -1.4 29.5
24:00 1024 30.24 853 25.19 16.2 61.2 29 -1.5 29.3